sensor_id;sensor_type;location;lat;lon;timestamp;pressure;altitude;pressure_sealevel;temperature;humidity
10958;BME280;5531;42.570;23.676;2023-05-19T12:47:39;92317.91;;;16.88;97.70
10958;BME280;5531;42.570;23.676;2023-05-19T12:50:09;92312.50;;;16.94;100.00
10958;BME280;5531;42.570;23.676;2023-05-19T12:52:42;92300.84;;;16.83;97.71
10958;BME280;5531;42.570;23.676;2023-05-19T12:55:12;92295.63;;;16.65;96.87
10958;BME280;5531;42.570;23.676;2023-05-19T12:57:43;92298.72;;;16.62;97.93
10958;BME280;5531;42.570;23.676;2023-05-19T13:00:14;92299.72;;;16.91;100.00
10958;BME280;5531;42.570;23.676;2023-05-19T13:02:58;92284.22;;;17.18;100.00
10958;BME280;5531;42.570;23.676;2023-05-19T13:05:30;92292.84;;;17.26;98.02
10958;BME280;5531;42.570;23.676;2023-05-19T13:08:04;92286.41;;;17.57;98.53
10958;BME280;5531;42.570;23.676;2023-05-19T13:10:35;92287.19;;;17.57;89.34
10958;BME280;5531;42.570;23.676;2023-05-19T13:13:05;92293.75;;;17.78;90.66
10958;BME280;5531;42.570;23.676;2023-05-19T13:15:36;92288.31;;;17.85;90.10
10958;BME280;5531;42.570;23.676;2023-05-19T13:18:10;92281.03;;;18.04;83.83
10958;BME280;5531;42.570;23.676;2023-05-19T13:20:40;92287.31;;;18.27;81.39
10958;BME280;5531;42.570;23.676;2023-05-19T13:23:10;92282.28;;;18.59;90.62
10958;BME280;5531;42.570;23.676;2023-05-19T13:25:39;92286.41;;;18.67;85.65
10958;BME280;5531;42.570;23.676;2023-05-19T13:28:08;92291.53;;;18.85;89.18
10958;BME280;5531;42.570;23.676;2023-05-19T13:30:39;92292.59;;;19.01;81.34
10958;BME280;5531;42.570;23.676;2023-05-19T13:33:12;92292.13;;;19.21;77.54
10958;BME280;5531;42.570;23.676;2023-05-19T13:35:41;92295.09;;;19.25;71.83
10958;BME280;5531;42.570;23.676;2023-05-19T13:38:10;92300.09;;;19.21;72.92
10958;BME280;5531;42.570;23.676;2023-05-19T13:40:39;92299.66;;;19.47;70.23
10958;BME280;5531;42.570;23.676;2023-05-19T13:43:09;92299.19;;;19.50;64.29
10958;BME280;5531;42.570;23.676;2023-05-19T13:45:38;92290.72;;;19.53;66.45
10958;BME280;5531;42.570;23.676;2023-05-19T13:48:07;92302.94;;;19.54;63.50
10958;BME280;5531;42.570;23.676;2023-05-19T13:50:39;92294.06;;;19.65;69.50
10958;BME280;5531;42.570;23.676;2023-05-19T13:53:08;92292.78;;;19.68;73.66
10958;BME280;5531;42.570;23.676;2023-05-19T13:55:37;92299.19;;;19.72;69.77
10958;BME280;5531;42.570;23.676;2023-05-19T13:58:06;92290.19;;;19.73;67.94
10958;BME280;5531;42.570;23.676;2023-05-19T14:00:35;92294.31;;;19.81;64.80
10958;BME280;5531;42.570;23.676;2023-05-19T14:03:05;92287.66;;;19.61;59.50
10958;BME280;5531;42.570;23.676;2023-05-19T14:05:34;92293.88;;;19.72;61.97
10958;BME280;5531;42.570;23.676;2023-05-19T14:08:06;92291.41;;;19.82;60.25
10958;BME280;5531;42.570;23.676;2023-05-19T14:10:36;92289.34;;;20.56;61.88
10958;BME280;5531;42.570;23.676;2023-05-19T14:13:06;92289.09;;;21.17;56.54
10958;BME280;5531;42.570;23.676;2023-05-19T14:15:37;92292.47;;;21.39;58.50
10958;BME280;5531;42.570;23.676;2023-05-19T14:18:06;92287.56;;;21.53;58.43
10958;BME280;5531;42.570;23.676;2023-05-19T14:20:35;92283.66;;;21.71;57.10
10958;BME280;5531;42.570;23.676;2023-05-19T14:23:07;92288.22;;;21.76;56.56
10958;BME280;5531;42.570;23.676;2023-05-19T14:25:36;92288.22;;;21.76;53.82
10958;BME280;5531;42.570;23.676;2023-05-19T14:28:05;92298.72;;;21.50;56.04
10958;BME280;5531;42.570;23.676;2023-05-19T14:30:35;92297.53;;;21.03;55.40
10958;BME280;5531;42.570;23.676;2023-05-19T14:33:05;92301.47;;;20.46;59.22
10958;BME280;5531;42.570;23.676;2023-05-19T14:35:34;92316.00;;;20.11;59.01
10958;BME280;5531;42.570;23.676;2023-05-19T14:38:03;92308.13;;;20.00;61.38
10958;BME280;5531;42.570;23.676;2023-05-19T14:40:35;92312.81;;;19.92;61.25
10958;BME280;5531;42.570;23.676;2023-05-19T14:43:06;92308.97;;;19.83;66.13
10958;BME280;5531;42.570;23.676;2023-05-19T14:45:35;92311.63;;;19.83;65.14
10958;BME280;5531;42.570;23.676;2023-05-19T14:48:04;92316.13;;;19.83;55.46
10958;BME280;5531;42.570;23.676;2023-05-19T14:50:33;92318.34;;;20.08;60.38
10958;BME280;5531;42.570;23.676;2023-05-19T14:53:03;92313.50;;;20.27;60.17
10958;BME280;5531;42.570;23.676;2023-05-19T14:55:34;92324.59;;;20.41;58.02
10958;BME280;5531;42.570;23.676;2023-05-19T14:58:03;92314.59;;;20.53;59.80
10958;BME280;5531;42.570;23.676;2023-05-19T15:00:32;92314.06;;;20.73;57.85
10958;BME280;5531;42.570;23.676;2023-05-19T15:03:01;92320.66;;;20.98;56.20
10958;BME280;5531;42.570;23.676;2023-05-19T15:05:30;92316.91;;;21.26;55.31
10958;BME280;5531;42.570;23.676;2023-05-19T15:07:59;92310.09;;;21.78;55.00
10958;BME280;5531;42.570;23.676;2023-05-19T15:10:28;92314.66;;;22.30;52.07
10958;BME280;5531;42.570;23.676;2023-05-19T15:13:01;92317.34;;;22.30;52.59
10958;BME280;5531;42.570;23.676;2023-05-19T15:15:30;92313.88;;;22.30;50.62
10958;BME280;5531;42.570;23.676;2023-05-19T15:17:59;92312.72;;;22.21;52.06
10958;BME280;5531;42.570;23.676;2023-05-19T15:20:28;92318.78;;;22.06;51.28
10958;BME280;5531;42.570;23.676;2023-05-19T15:22:57;92315.84;;;22.02;52.25
10958;BME280;5531;42.570;23.676;2023-05-19T15:25:26;92320.34;;;21.96;49.91
10958;BME280;5531;42.570;23.676;2023-05-19T15:27:55;92317.63;;;21.86;52.96
10958;BME280;5531;42.570;23.676;2023-05-19T15:30:27;92314.56;;;21.67;53.11
10958;BME280;5531;42.570;23.676;2023-05-19T15:32:56;92310.59;;;21.70;52.74
10958;BME280;5531;42.570;23.676;2023-05-19T15:35:25;92311.47;;;21.81;54.73
10958;BME280;5531;42.570;23.676;2023-05-19T15:37:54;92312.31;;;21.91;53.86
10958;BME280;5531;42.570;23.676;2023-05-19T15:40:29;92309.72;;;22.07;55.12
10958;BME280;5531;42.570;23.676;2023-05-19T15:42:58;92319.50;;;22.44;53.01
10958;BME280;5531;42.570;23.676;2023-05-19T15:45:30;92318.56;;;22.76;50.00
10958;BME280;5531;42.570;23.676;2023-05-19T15:47:59;92309.50;;;22.97;53.93
10958;BME280;5531;42.570;23.676;2023-05-19T15:50:28;92310.09;;;23.30;54.18
10958;BME280;5531;42.570;23.676;2023-05-19T15:52:57;92311.44;;;23.43;51.47
10958;BME280;5531;42.570;23.676;2023-05-19T15:55:26;92322.94;;;23.23;51.37
10958;BME280;5531;42.570;23.676;2023-05-19T15:57:55;92319.06;;;22.73;53.63
10958;BME280;5531;42.570;23.676;2023-05-19T16:00:24;92317.03;;;22.27;52.83
10958;BME280;5531;42.570;23.676;2023-05-19T16:02:56;92311.81;;;22.00;55.91
10958;BME280;5531;42.570;23.676;2023-05-19T16:05:25;92314.97;;;21.91;55.98
10958;BME280;5531;42.570;23.676;2023-05-19T16:07:54;92315.50;;;21.88;54.31
10958;BME280;5531;42.570;23.676;2023-05-19T16:10:23;92317.38;;;21.88;57.76
10958;BME280;5531;42.570;23.676;2023-05-19T16:12:52;92315.13;;;21.69;56.84
10958;BME280;5531;42.570;23.676;2023-05-19T16:15:21;92325.22;;;21.35;57.28
10958;BME280;5531;42.570;23.676;2023-05-19T16:17:50;92306.19;;;20.88;56.95
10958;BME280;5531;42.570;23.676;2023-05-19T16:20:22;92313.06;;;20.57;60.72
10958;BME280;5531;42.570;23.676;2023-05-19T16:22:52;92313.31;;;20.33;62.68
10958;BME280;5531;42.570;23.676;2023-05-19T16:25:22;92317.16;;;20.21;62.05
10958;BME280;5531;42.570;23.676;2023-05-19T16:27:51;92319.38;;;20.07;63.29
10958;BME280;5531;42.570;23.676;2023-05-19T16:30:20;92316.84;;;19.95;63.73
10958;BME280;5531;42.570;23.676;2023-05-19T16:32:51;92324.06;;;19.77;63.99
10958;BME280;5531;42.570;23.676;2023-05-19T16:35:23;92310.69;;;19.38;64.57
10958;BME280;5531;42.570;23.676;2023-05-19T16:37:52;92320.91;;;19.13;65.95
10958;BME280;5531;42.570;23.676;2023-05-19T16:40:21;92318.66;;;18.88;65.55
10958;BME280;5531;42.570;23.676;2023-05-19T16:42:51;92328.97;;;18.72;68.75
10958;BME280;5531;42.570;23.676;2023-05-19T16:45:20;92329.59;;;18.62;70.16
10958;BME280;5531;42.570;23.676;2023-05-19T16:47:51;92331.66;;;18.43;68.64
10958;BME280;5531;42.570;23.676;2023-05-19T16:50:20;92326.03;;;18.28;66.81
10958;BME280;5531;42.570;23.676;2023-05-19T16:52:52;92329.84;;;18.20;66.20
10958;BME280;5531;42.570;23.676;2023-05-19T16:55:21;92326.81;;;18.00;68.67
10958;BME280;5531;42.570;23.676;2023-05-19T16:57:51;92331.78;;;17.96;67.00
10958;BME280;5531;42.570;23.676;2023-05-19T17:00:20;92331.66;;;17.91;67.54
10958;BME280;5531;42.570;23.676;2023-05-19T17:02:49;92334.06;;;17.92;66.25
10958;BME280;5531;42.570;23.676;2023-05-19T17:05:18;92333.25;;;17.92;66.61
10958;BME280;5531;42.570;23.676;2023-05-19T17:07:47;92335.34;;;17.90;69.67
10958;BME280;5531;42.570;23.676;2023-05-19T17:10:19;92343.06;;;17.80;72.22
10958;BME280;5531;42.570;23.676;2023-05-19T17:12:48;92339.34;;;17.81;71.49
10958;BME280;5531;42.570;23.676;2023-05-19T17:15:17;92339.03;;;17.65;71.21
10958;BME280;5531;42.570;23.676;2023-05-19T17:17:46;92335.56;;;17.53;72.17
10958;BME280;5531;42.570;23.676;2023-05-19T17:20:16;92336.03;;;17.50;72.71
10958;BME280;5531;42.570;23.676;2023-05-19T17:22:45;92331.66;;;17.44;74.68
10958;BME280;5531;42.570;23.676;2023-05-19T17:25:14;92336.38;;;17.41;72.72
10958;BME280;5531;42.570;23.676;2023-05-19T17:27:46;92332.72;;;17.31;70.87
10958;BME280;5531;42.570;23.676;2023-05-19T17:30:17;92332.09;;;17.29;71.26
10958;BME280;5531;42.570;23.676;2023-05-19T17:32:46;92345.91;;;17.19;72.61
10958;BME280;5531;42.570;23.676;2023-05-19T17:35:15;92343.88;;;17.21;72.80
10958;BME280;5531;42.570;23.676;2023-05-19T17:37:44;92348.34;;;17.20;73.84
10958;BME280;5531;42.570;23.676;2023-05-19T17:40:13;92354.06;;;17.06;75.17
10958;BME280;5531;42.570;23.676;2023-05-19T17:42:42;92367.91;;;16.77;73.86
10958;BME280;5531;42.570;23.676;2023-05-19T17:45:13;92358.50;;;16.33;76.74
10958;BME280;5531;42.570;23.676;2023-05-19T17:47:42;92365.59;;;15.83;80.46
10958;BME280;5531;42.570;23.676;2023-05-19T17:50:11;92373.91;;;15.62;84.21
10958;BME280;5531;42.570;23.676;2023-05-19T17:52:41;92363.97;;;15.38;86.11
10958;BME280;5531;42.570;23.676;2023-05-19T17:55:12;92369.47;;;15.37;86.46
10958;BME280;5531;42.570;23.676;2023-05-19T17:57:43;92367.03;;;15.35;87.24
10958;BME280;5531;42.570;23.676;2023-05-19T18:00:17;92372.16;;;15.30;87.02
10958;BME280;5531;42.570;23.676;2023-05-19T18:02:47;92370.03;;;15.14;88.22
10958;BME280;5531;42.570;23.676;2023-05-19T18:05:16;92368.56;;;14.99;89.77
10958;BME280;5531;42.570;23.676;2023-05-19T18:07:47;92378.91;;;14.94;90.57
10958;BME280;5531;42.570;23.676;2023-05-19T18:10:17;92379.22;;;14.79;91.23
10958;BME280;5531;42.570;23.676;2023-05-19T18:12:46;92383.16;;;14.70;91.35
10958;BME280;5531;42.570;23.676;2023-05-19T18:15:17;92383.16;;;14.70;91.64
10958;BME280;5531;42.570;23.676;2023-05-19T18:17:46;92386.25;;;14.60;92.47
10958;BME280;5531;42.570;23.676;2023-05-19T18:20:16;92389.72;;;14.47;93.56
10958;BME280;5531;42.570;23.676;2023-05-19T18:22:45;92390.31;;;14.49;94.16
10958;BME280;5531;42.570;23.676;2023-05-19T18:25:14;92386.91;;;14.42;93.91
10958;BME280;5531;42.570;23.676;2023-05-19T18:27:45;92380.25;;;14.33;95.40
10958;BME280;5531;42.570;23.676;2023-05-19T18:30:17;92395.09;;;14.21;96.76
10958;BME280;5531;42.570;23.676;2023-05-19T18:32:46;92392.72;;;14.12;97.27
10958;BME280;5531;42.570;23.676;2023-05-19T18:35:15;92408.94;;;14.09;98.25
10958;BME280;5531;42.570;23.676;2023-05-19T18:37:45;92423.34;;;14.07;97.87
10958;BME280;5531;42.570;23.676;2023-05-19T18:40:14;92426.78;;;14.01;98.62
10958;BME280;5531;42.570;23.676;2023-05-19T18:42:43;92415.91;;;13.90;99.69
10958;BME280;5531;42.570;23.676;2023-05-19T18:45:12;92408.16;;;14.02;99.37
10958;BME280;5531;42.570;23.676;2023-05-19T18:47:44;92406.53;;;14.01;99.28
10958;BME280;5531;42.570;23.676;2023-05-19T18:50:13;92411.81;;;13.94;98.44
10958;BME280;5531;42.570;23.676;2023-05-19T18:52:42;92420.94;;;13.99;98.75
10958;BME280;5531;42.570;23.676;2023-05-19T18:55:11;92425.41;;;13.85;99.72
10958;BME280;5531;42.570;23.676;2023-05-19T18:57:40;92437.16;;;13.89;100.00
10958;BME280;5531;42.570;23.676;2023-05-19T19:00:11;92433.53;;;13.83;100.00
10958;BME280;5531;42.570;23.676;2023-05-19T19:02:43;92420.53;;;13.88;100.00
10958;BME280;5531;42.570;23.676;2023-05-19T19:05:12;92418.72;;;13.89;100.00
10958;BME280;5531;42.570;23.676;2023-05-19T19:07:42;92414.69;;;13.86;100.00
10958;BME280;5531;42.570;23.676;2023-05-19T19:10:11;92414.06;;;13.84;100.00
10958;BME280;5531;42.570;23.676;2023-05-19T19:12:40;92412.66;;;13.82;100.00
10958;BME280;5531;42.570;23.676;2023-05-19T19:15:10;92417.13;;;13.81;100.00
10958;BME280;5531;42.570;23.676;2023-05-19T19:17:39;92409.44;;;13.80;100.00
10958;BME280;5531;42.570;23.676;2023-05-19T19:20:11;92412.28;;;13.71;100.00
10958;BME280;5531;42.570;23.676;2023-05-19T19:22:40;92417.31;;;13.80;100.00
10958;BME280;5531;42.570;23.676;2023-05-19T19:25:09;92418.13;;;13.80;100.00
10958;BME280;5531;42.570;23.676;2023-05-19T19:27:39;92424.44;;;13.72;100.00
10958;BME280;5531;42.570;23.676;2023-05-19T19:30:08;92422.00;;;13.78;100.00
10958;BME280;5531;42.570;23.676;2023-05-19T19:32:38;92420.19;;;13.71;100.00
10958;BME280;5531;42.570;23.676;2023-05-19T19:35:10;92423.41;;;13.73;100.00
10958;BME280;5531;42.570;23.676;2023-05-19T19:37:40;92415.72;;;13.72;100.00
10958;BME280;5531;42.570;23.676;2023-05-19T19:40:12;92419.38;;;13.64;100.00
10958;BME280;5531;42.570;23.676;2023-05-19T19:42:41;92424.44;;;13.52;100.00
10958;BME280;5531;42.570;23.676;2023-05-19T19:45:10;92407.66;;;13.47;100.00
10958;BME280;5531;42.570;23.676;2023-05-19T19:47:39;92400.59;;;13.34;100.00
10958;BME280;5531;42.570;23.676;2023-05-19T19:50:11;92403.41;;;13.32;100.00
10958;BME280;5531;42.570;23.676;2023-05-19T19:52:41;92402.78;;;13.30;100.00
10958;BME280;5531;42.570;23.676;2023-05-19T19:55:10;92407.28;;;13.36;100.00
10958;BME280;5531;42.570;23.676;2023-05-19T19:57:39;92403.38;;;13.26;100.00
10958;BME280;5531;42.570;23.676;2023-05-19T20:00:11;92411.88;;;13.28;100.00
10958;BME280;5531;42.570;23.676;2023-05-19T20:02:40;92417.97;;;13.28;100.00
10958;BME280;5531;42.570;23.676;2023-05-19T20:05:12;92421.63;;;13.34;100.00
10958;BME280;5531;42.570;23.676;2023-05-19T20:07:42;92412.72;;;13.28;100.00
10958;BME280;5531;42.570;23.676;2023-05-19T20:10:11;92414.72;;;13.26;100.00
10958;BME280;5531;42.570;23.676;2023-05-19T20:12:40;92417.38;;;13.33;100.00
10958;BME280;5531;42.570;23.676;2023-05-19T20:15:09;92416.94;;;13.29;100.00
10958;BME280;5531;42.570;23.676;2023-05-19T20:17:38;92417.78;;;13.43;100.00
10958;BME280;5531;42.570;23.676;2023-05-19T20:20:11;92411.31;;;13.32;100.00
10958;BME280;5531;42.570;23.676;2023-05-19T20:22:40;92416.56;;;13.46;100.00
10958;BME280;5531;42.570;23.676;2023-05-19T20:25:10;92421.22;;;13.57;100.00
10958;BME280;5531;42.570;23.676;2023-05-19T20:27:39;92425.47;;;13.58;100.00
10958;BME280;5531;42.570;23.676;2023-05-19T20:30:08;92415.91;;;13.70;100.00
10958;BME280;5531;42.570;23.676;2023-05-19T20:32:38;92427.88;;;13.66;100.00
10958;BME280;5531;42.570;23.676;2023-05-19T20:35:07;92417.97;;;13.55;100.00
10958;BME280;5531;42.570;23.676;2023-05-19T20:37:39;92415.16;;;13.50;100.00
10958;BME280;5531;42.570;23.676;2023-05-19T20:40:08;92419.19;;;13.32;100.00
10958;BME280;5531;42.570;23.676;2023-05-19T20:42:38;92424.06;;;13.35;100.00
10958;BME280;5531;42.570;23.676;2023-05-19T20:45:08;92423.25;;;13.42;100.00
10958;BME280;5531;42.570;23.676;2023-05-19T20:47:37;92425.69;;;13.50;100.00
10958;BME280;5531;42.570;23.676;2023-05-19T20:50:07;92420.41;;;13.50;100.00
10958;BME280;5531;42.570;23.676;2023-05-19T20:52:39;92422.25;;;13.49;100.00
10958;BME280;5531;42.570;23.676;2023-05-19T20:55:08;92420.41;;;13.50;100.00
10958;BME280;5531;42.570;23.676;2023-05-19T20:57:37;92417.38;;;13.46;100.00
10958;BME280;5531;42.570;23.676;2023-05-19T21:00:07;92422.44;;;13.48;100.00
10958;BME280;5531;42.570;23.676;2023-05-19T21:02:36;92419.38;;;13.51;100.00
10958;BME280;5531;42.570;23.676;2023-05-19T21:05:06;92418.38;;;13.52;100.00
10958;BME280;5531;42.570;23.676;2023-05-19T21:07:38;92419.63;;;13.49;100.00
10958;BME280;5531;42.570;23.676;2023-05-19T21:10:07;92414.94;;;13.51;100.00
10958;BME280;5531;42.570;23.676;2023-05-19T21:12:38;92424.84;;;13.43;100.00
10958;BME280;5531;42.570;23.676;2023-05-19T21:15:08;92421.81;;;13.19;100.00
10958;BME280;5531;42.570;23.676;2023-05-19T21:17:37;92416.56;;;13.32;100.00
10958;BME280;5531;42.570;23.676;2023-05-19T21:20:08;92415.94;;;13.30;100.00
10958;BME280;5531;42.570;23.676;2023-05-19T21:22:39;92413.31;;;13.30;100.00
10958;BME280;5531;42.570;23.676;2023-05-19T21:25:09;92410.91;;;13.35;100.00
10958;BME280;5531;42.570;23.676;2023-05-19T21:27:38;92419.00;;;13.34;100.00
10958;BME280;5531;42.570;23.676;2023-05-19T21:30:07;92413.09;;;13.32;100.00
10958;BME280;5531;42.570;23.676;2023-05-19T21:32:36;92416.34;;;13.20;100.00
10958;BME280;5531;42.570;23.676;2023-05-19T21:35:06;92416.16;;;13.09;100.00
10958;BME280;5531;42.570;23.676;2023-05-19T21:37:36;92423.22;;;13.01;100.00
10958;BME280;5531;42.570;23.676;2023-05-19T21:40:08;92415.72;;;12.98;100.00
10958;BME280;5531;42.570;23.676;2023-05-19T21:42:37;92427.47;;;13.02;100.00
10958;BME280;5531;42.570;23.676;2023-05-19T21:45:07;92415.72;;;13.05;100.00
10958;BME280;5531;42.570;23.676;2023-05-19T21:47:36;92410.66;;;13.03;100.00
10958;BME280;5531;42.570;23.676;2023-05-19T21:50:07;92411.47;;;13.17;100.00
10958;BME280;5531;42.570;23.676;2023-05-19T21:52:36;92404.38;;;13.25;100.00
10958;BME280;5531;42.570;23.676;2023-05-19T21:55:09;92408.69;;;13.32;100.00
10958;BME280;5531;42.570;23.676;2023-05-19T21:57:38;92406.25;;;13.37;100.00
10958;BME280;5531;42.570;23.676;2023-05-19T22:00:08;92405.41;;;13.30;100.00
10958;BME280;5531;42.570;23.676;2023-05-19T22:02:38;92397.94;;;13.27;100.00
10958;BME280;5531;42.570;23.676;2023-05-19T22:05:08;92406.22;;;13.24;100.00
10958;BME280;5531;42.570;23.676;2023-05-19T22:07:37;92404.00;;;13.14;100.00
10958;BME280;5531;42.570;23.676;2023-05-19T22:10:09;92403.19;;;13.07;100.00
10958;BME280;5531;42.570;23.676;2023-05-19T22:12:38;92404.41;;;12.91;100.00
10958;BME280;5531;42.570;23.676;2023-05-19T22:15:09;92410.44;;;12.85;100.00
10958;BME280;5531;42.570;23.676;2023-05-19T22:17:39;92396.06;;;12.68;100.00
10958;BME280;5531;42.570;23.676;2023-05-19T22:20:09;92403.94;;;12.74;100.00
10958;BME280;5531;42.570;23.676;2023-05-19T22:22:38;92407.81;;;12.78;100.00
10958;BME280;5531;42.570;23.676;2023-05-19T22:25:10;92398.50;;;12.82;100.00
10958;BME280;5531;42.570;23.676;2023-05-19T22:27:39;92393.88;;;12.84;100.00
10958;BME280;5531;42.570;23.676;2023-05-19T22:30:08;92393.88;;;12.91;100.00
10958;BME280;5531;42.570;23.676;2023-05-19T22:32:37;92392.69;;;13.00;100.00
10958;BME280;5531;42.570;23.676;2023-05-19T22:35:07;92391.03;;;13.13;100.00
10958;BME280;5531;42.570;23.676;2023-05-19T22:37:37;92383.13;;;13.26;100.00
10958;BME280;5531;42.570;23.676;2023-05-19T22:40:10;92367.97;;;13.28;100.00
10958;BME280;5531;42.570;23.676;2023-05-19T22:42:39;92377.69;;;13.34;100.00
10958;BME280;5531;42.570;23.676;2023-05-19T22:45:09;92373.84;;;13.37;100.00
10958;BME280;5531;42.570;23.676;2023-05-19T22:47:38;92369.81;;;13.48;100.00
10958;BME280;5531;42.570;23.676;2023-05-19T22:50:08;92372.84;;;13.51;99.91
10958;BME280;5531;42.570;23.676;2023-05-19T22:52:37;92375.06;;;13.54;98.65
10958;BME280;5531;42.570;23.676;2023-05-19T22:55:09;92385.56;;;13.61;97.97
10958;BME280;5531;42.570;23.676;2023-05-19T22:57:38;92374.00;;;13.62;98.34
10958;BME280;5531;42.570;23.676;2023-05-19T23:00:09;92377.28;;;13.37;100.00
10958;BME280;5531;42.570;23.676;2023-05-19T23:02:38;92381.34;;;13.20;100.00
10958;BME280;5531;42.570;23.676;2023-05-19T23:05:08;92380.13;;;13.09;100.00
10958;BME280;5531;42.570;23.676;2023-05-19T23:07:37;92384.34;;;13.03;100.00
10958;BME280;5531;42.570;23.676;2023-05-19T23:10:12;92381.53;;;12.98;100.00
10958;BME280;5531;42.570;23.676;2023-05-19T23:12:41;92375.88;;;12.95;100.00
10958;BME280;5531;42.570;23.676;2023-05-19T23:15:10;92386.78;;;13.12;100.00
10958;BME280;5531;42.570;23.676;2023-05-19T23:17:39;92369.00;;;13.14;100.00
10958;BME280;5531;42.570;23.676;2023-05-19T23:20:10;92368.41;;;13.18;100.00
10958;BME280;5531;42.570;23.676;2023-05-19T23:22:39;92364.53;;;13.21;100.00
10958;BME280;5531;42.570;23.676;2023-05-19T23:25:11;92364.91;;;13.25;99.25
10958;BME280;5531;42.570;23.676;2023-05-19T23:27:40;92359.88;;;13.30;99.22
10958;BME280;5531;42.570;23.676;2023-05-19T23:30:09;92366.97;;;13.36;98.42
10958;BME280;5531;42.570;23.676;2023-05-19T23:32:38;92363.09;;;13.52;97.47
10958;BME280;5531;42.570;23.676;2023-05-19T23:35:11;92366.53;;;13.59;97.44
10958;BME280;5531;42.570;23.676;2023-05-19T23:37:40;92364.09;;;13.64;97.05
10958;BME280;5531;42.570;23.676;2023-05-19T23:40:13;92358.22;;;13.62;98.13
10958;BME280;5531;42.570;23.676;2023-05-19T23:42:42;92353.16;;;13.61;98.32
10958;BME280;5531;42.570;23.676;2023-05-19T23:45:11;92350.97;;;13.57;98.41
10958;BME280;5531;42.570;23.676;2023-05-19T23:47:40;92338.97;;;13.62;99.41
10958;BME280;5531;42.570;23.676;2023-05-19T23:50:09;92332.31;;;13.52;99.38
10958;BME280;5531;42.570;23.676;2023-05-19T23:52:38;92331.50;;;13.59;99.37
10958;BME280;5531;42.570;23.676;2023-05-19T23:55:08;92342.66;;;13.47;99.83
10958;BME280;5531;42.570;23.676;2023-05-19T23:57:40;92336.59;;;13.40;99.66
